sensor_id;sensor_type;location;lat;lon;timestamp;P1;durP1;ratioP1;P2;durP2;ratioP2
8279;SDS011;8335;42.646;23.380;2023-04-07T00:01:27;16.87;;;10.37;;
8279;SDS011;8335;42.646;23.380;2023-04-07T00:03:54;15.67;;;9.90;;
8279;SDS011;8335;42.646;23.380;2023-04-07T00:06:21;14.37;;;10.33;;
8279;SDS011;8335;42.646;23.380;2023-04-07T00:08:47;15.77;;;9.90;;
8279;SDS011;8335;42.646;23.380;2023-04-07T00:11:16;13.73;;;10.13;;
8279;SDS011;8335;42.646;23.380;2023-04-07T00:13:42;13.93;;;10.10;;
8279;SDS011;8335;42.646;23.380;2023-04-07T00:16:09;17.47;;;10.33;;
8279;SDS011;8335;42.646;23.380;2023-04-07T00:18:36;15.23;;;10.67;;
8279;SDS011;8335;42.646;23.380;2023-04-07T00:21:03;13.50;;;9.70;;
8279;SDS011;8335;42.646;23.380;2023-04-07T00:23:30;14.63;;;9.60;;
8279;SDS011;8335;42.646;23.380;2023-04-07T00:25:56;13.63;;;9.70;;
8279;SDS011;8335;42.646;23.380;2023-04-07T00:28:25;13.77;;;10.07;;
8279;SDS011;8335;42.646;23.380;2023-04-07T00:30:51;13.67;;;9.47;;
8279;SDS011;8335;42.646;23.380;2023-04-07T00:33:18;13.50;;;9.77;;
8279;SDS011;8335;42.646;23.380;2023-04-07T00:35:45;17.40;;;9.93;;
8279;SDS011;8335;42.646;23.380;2023-04-07T00:38:11;14.43;;;10.10;;
8279;SDS011;8335;42.646;23.380;2023-04-07T00:40:38;12.47;;;9.53;;
8279;SDS011;8335;42.646;23.380;2023-04-07T00:43:05;13.57;;;10.53;;
8279;SDS011;8335;42.646;23.380;2023-04-07T00:45:33;13.47;;;9.57;;
8279;SDS011;8335;42.646;23.380;2023-04-07T00:48:01;13.73;;;10.00;;
8279;SDS011;8335;42.646;23.380;2023-04-07T00:50:29;13.87;;;9.67;;
8279;SDS011;8335;42.646;23.380;2023-04-07T00:52:56;15.93;;;9.37;;
8279;SDS011;8335;42.646;23.380;2023-04-07T00:55:22;14.27;;;9.47;;
8279;SDS011;8335;42.646;23.380;2023-04-07T00:57:49;15.57;;;10.03;;
8279;SDS011;8335;42.646;23.380;2023-04-07T01:00:16;13.70;;;9.60;;
8279;SDS011;8335;42.646;23.380;2023-04-07T01:02:47;16.93;;;11.07;;
8279;SDS011;8335;42.646;23.380;2023-04-07T01:05:20;27.20;;;14.50;;
8279;SDS011;8335;42.646;23.380;2023-04-07T01:07:53;25.00;;;15.10;;
8279;SDS011;8335;42.646;23.380;2023-04-07T01:10:26;24.70;;;15.53;;
8279;SDS011;8335;42.646;23.380;2023-04-07T01:13:00;26.13;;;15.20;;
8279;SDS011;8335;42.646;23.380;2023-04-07T01:15:31;21.77;;;15.07;;
8279;SDS011;8335;42.646;23.380;2023-04-07T01:18:04;24.10;;;16.30;;
8279;SDS011;8335;42.646;23.380;2023-04-07T01:20:35;24.20;;;14.30;;
8279;SDS011;8335;42.646;23.380;2023-04-07T01:23:04;25.17;;;15.20;;
8279;SDS011;8335;42.646;23.380;2023-04-07T01:25:34;20.90;;;13.30;;
8279;SDS011;8335;42.646;23.380;2023-04-07T01:28:25;22.90;;;13.63;;
8279;SDS011;8335;42.646;23.380;2023-04-07T01:31:07;21.00;;;13.67;;
8279;SDS011;8335;42.646;23.380;2023-04-07T01:33:35;24.20;;;14.03;;
8279;SDS011;8335;42.646;23.380;2023-04-07T01:36:04;19.13;;;12.93;;
8279;SDS011;8335;42.646;23.380;2023-04-07T01:38:33;19.57;;;12.93;;
8279;SDS011;8335;42.646;23.380;2023-04-07T01:41:00;15.30;;;10.70;;
8279;SDS011;8335;42.646;23.380;2023-04-07T01:43:28;13.57;;;10.40;;
8279;SDS011;8335;42.646;23.380;2023-04-07T01:45:56;19.07;;;11.63;;
8279;SDS011;8335;42.646;23.380;2023-04-07T01:48:26;20.97;;;13.80;;
8279;SDS011;8335;42.646;23.380;2023-04-07T01:50:53;23.93;;;14.93;;
8279;SDS011;8335;42.646;23.380;2023-04-07T01:53:21;20.97;;;13.77;;
8279;SDS011;8335;42.646;23.380;2023-04-07T01:55:48;25.30;;;15.97;;
8279;SDS011;8335;42.646;23.380;2023-04-07T01:58:17;23.50;;;15.23;;
8279;SDS011;8335;42.646;23.380;2023-04-07T02:00:44;28.00;;;16.17;;
8279;SDS011;8335;42.646;23.380;2023-04-07T02:03:12;30.97;;;16.97;;
8279;SDS011;8335;42.646;23.380;2023-04-07T02:05:46;27.50;;;16.17;;
8279;SDS011;8335;42.646;23.380;2023-04-07T02:08:15;32.10;;;17.17;;
8279;SDS011;8335;42.646;23.380;2023-04-07T02:10:43;27.80;;;16.77;;
8279;SDS011;8335;42.646;23.380;2023-04-07T02:13:14;24.83;;;15.80;;
8279;SDS011;8335;42.646;23.380;2023-04-07T02:15:43;28.13;;;16.00;;
8279;SDS011;8335;42.646;23.380;2023-04-07T02:18:12;21.07;;;15.17;;
8279;SDS011;8335;42.646;23.380;2023-04-07T02:20:39;26.57;;;16.43;;
8279;SDS011;8335;42.646;23.380;2023-04-07T02:23:10;22.60;;;14.93;;
8279;SDS011;8335;42.646;23.380;2023-04-07T02:25:38;24.50;;;15.77;;
8279;SDS011;8335;42.646;23.380;2023-04-07T02:28:05;25.60;;;15.63;;
8279;SDS011;8335;42.646;23.380;2023-04-07T02:30:32;25.07;;;14.97;;
8279;SDS011;8335;42.646;23.380;2023-04-07T02:32:59;26.80;;;15.53;;
8279;SDS011;8335;42.646;23.380;2023-04-07T02:35:25;24.07;;;15.27;;
8279;SDS011;8335;42.646;23.380;2023-04-07T02:37:52;30.57;;;16.60;;
8279;SDS011;8335;42.646;23.380;2023-04-07T02:40:22;24.20;;;15.40;;
8279;SDS011;8335;42.646;23.380;2023-04-07T02:42:49;26.10;;;15.77;;
8279;SDS011;8335;42.646;23.380;2023-04-07T02:45:15;26.00;;;15.70;;
8279;SDS011;8335;42.646;23.380;2023-04-07T02:47:42;24.30;;;15.30;;
8279;SDS011;8335;42.646;23.380;2023-04-07T02:50:09;24.97;;;15.70;;
8279;SDS011;8335;42.646;23.380;2023-04-07T02:52:36;24.20;;;15.33;;
8279;SDS011;8335;42.646;23.380;2023-04-07T02:55:03;22.77;;;14.53;;
8279;SDS011;8335;42.646;23.380;2023-04-07T02:57:32;24.40;;;16.33;;
8279;SDS011;8335;42.646;23.380;2023-04-07T02:59:59;22.33;;;15.23;;
8279;SDS011;8335;42.646;23.380;2023-04-07T03:02:26;25.67;;;15.80;;
8279;SDS011;8335;42.646;23.380;2023-04-07T03:04:52;31.67;;;17.30;;
8279;SDS011;8335;42.646;23.380;2023-04-07T03:07:19;27.33;;;17.40;;
8279;SDS011;8335;42.646;23.380;2023-04-07T03:09:46;28.00;;;16.53;;
8279;SDS011;8335;42.646;23.380;2023-04-07T03:12:13;31.93;;;17.90;;
8279;SDS011;8335;42.646;23.380;2023-04-07T03:14:41;28.90;;;17.67;;
8279;SDS011;8335;42.646;23.380;2023-04-07T03:17:07;25.07;;;16.90;;
8279;SDS011;8335;42.646;23.380;2023-04-07T03:19:34;29.57;;;18.23;;
8279;SDS011;8335;42.646;23.380;2023-04-07T03:22:01;30.70;;;18.07;;
8279;SDS011;8335;42.646;23.380;2023-04-07T03:24:27;30.47;;;18.10;;
8279;SDS011;8335;42.646;23.380;2023-04-07T03:26:54;27.10;;;16.30;;
8279;SDS011;8335;42.646;23.380;2023-04-07T03:29:21;26.23;;;16.80;;
8279;SDS011;8335;42.646;23.380;2023-04-07T03:31:49;29.37;;;17.67;;
8279;SDS011;8335;42.646;23.380;2023-04-07T03:34:16;26.50;;;16.60;;
8279;SDS011;8335;42.646;23.380;2023-04-07T03:36:43;25.87;;;16.70;;
8279;SDS011;8335;42.646;23.380;2023-04-07T03:39:09;26.40;;;16.23;;
8279;SDS011;8335;42.646;23.380;2023-04-07T03:41:36;25.27;;;15.43;;
8279;SDS011;8335;42.646;23.380;2023-04-07T03:44:03;26.43;;;15.03;;
8279;SDS011;8335;42.646;23.380;2023-04-07T03:46:29;24.33;;;14.50;;
8279;SDS011;8335;42.646;23.380;2023-04-07T03:48:58;26.30;;;14.80;;
8279;SDS011;8335;42.646;23.380;2023-04-07T03:51:24;18.27;;;11.37;;
8279;SDS011;8335;42.646;23.380;2023-04-07T03:53:51;18.33;;;10.53;;
8279;SDS011;8335;42.646;23.380;2023-04-07T03:56:18;18.13;;;9.50;;
8279;SDS011;8335;42.646;23.380;2023-04-07T03:58:45;14.67;;;9.20;;
8279;SDS011;8335;42.646;23.380;2023-04-07T04:01:13;12.63;;;9.27;;
8279;SDS011;8335;42.646;23.380;2023-04-07T04:03:40;17.57;;;9.23;;
8279;SDS011;8335;42.646;23.380;2023-04-07T04:06:08;12.83;;;8.80;;
8279;SDS011;8335;42.646;23.380;2023-04-07T04:08:35;13.40;;;7.77;;
8279;SDS011;8335;42.646;23.380;2023-04-07T04:11:01;13.77;;;8.40;;
8279;SDS011;8335;42.646;23.380;2023-04-07T04:13:28;12.33;;;9.30;;
8279;SDS011;8335;42.646;23.380;2023-04-07T04:15:55;19.27;;;8.33;;
8279;SDS011;8335;42.646;23.380;2023-04-07T04:18:21;19.67;;;12.27;;
8279;SDS011;8335;42.646;23.380;2023-04-07T04:20:48;30.07;;;17.03;;
8279;SDS011;8335;42.646;23.380;2023-04-07T04:23:16;30.67;;;17.23;;
8279;SDS011;8335;42.646;23.380;2023-04-07T04:25:43;29.33;;;17.77;;
8279;SDS011;8335;42.646;23.380;2023-04-07T04:28:10;29.83;;;17.17;;
8279;SDS011;8335;42.646;23.380;2023-04-07T04:30:37;30.30;;;17.77;;
8279;SDS011;8335;42.646;23.380;2023-04-07T04:33:03;26.27;;;16.37;;
8279;SDS011;8335;42.646;23.380;2023-04-07T04:35:30;27.63;;;16.00;;
8279;SDS011;8335;42.646;23.380;2023-04-07T04:37:57;30.07;;;17.20;;
8279;SDS011;8335;42.646;23.380;2023-04-07T04:40:25;25.63;;;16.57;;
8279;SDS011;8335;42.646;23.380;2023-04-07T04:42:52;28.83;;;15.77;;
8279;SDS011;8335;42.646;23.380;2023-04-07T04:45:18;29.93;;;16.03;;
8279;SDS011;8335;42.646;23.380;2023-04-07T04:47:45;28.00;;;15.83;;
8279;SDS011;8335;42.646;23.380;2023-04-07T04:50:12;24.27;;;15.80;;
8279;SDS011;8335;42.646;23.380;2023-04-07T04:52:39;27.17;;;15.20;;
8279;SDS011;8335;42.646;23.380;2023-04-07T04:55:06;27.93;;;15.73;;
8279;SDS011;8335;42.646;23.380;2023-04-07T04:57:35;31.60;;;17.23;;
8279;SDS011;8335;42.646;23.380;2023-04-07T05:00:02;25.47;;;14.93;;
8279;SDS011;8335;42.646;23.380;2023-04-07T05:02:30;22.70;;;13.67;;
8279;SDS011;8335;42.646;23.380;2023-04-07T05:04:56;24.77;;;14.37;;
8279;SDS011;8335;42.646;23.380;2023-04-07T05:07:23;20.67;;;14.47;;
8279;SDS011;8335;42.646;23.380;2023-04-07T05:09:51;21.97;;;12.67;;
8279;SDS011;8335;42.646;23.380;2023-04-07T05:12:17;21.33;;;13.43;;
8279;SDS011;8335;42.646;23.380;2023-04-07T05:14:45;25.73;;;15.17;;
8279;SDS011;8335;42.646;23.380;2023-04-07T05:17:12;25.77;;;15.53;;
8279;SDS011;8335;42.646;23.380;2023-04-07T05:19:39;23.97;;;16.17;;
8279;SDS011;8335;42.646;23.380;2023-04-07T05:22:06;31.33;;;16.77;;
8279;SDS011;8335;42.646;23.380;2023-04-07T05:24:32;25.37;;;15.37;;
8279;SDS011;8335;42.646;23.380;2023-04-07T05:26:59;25.40;;;14.93;;
8279;SDS011;8335;42.646;23.380;2023-04-07T05:29:26;26.07;;;16.30;;
8279;SDS011;8335;42.646;23.380;2023-04-07T05:31:54;24.97;;;15.77;;
8279;SDS011;8335;42.646;23.380;2023-04-07T05:34:20;23.13;;;15.90;;
8279;SDS011;8335;42.646;23.380;2023-04-07T05:36:47;28.53;;;15.20;;
8279;SDS011;8335;42.646;23.380;2023-04-07T05:39:14;21.60;;;15.13;;
8279;SDS011;8335;42.646;23.380;2023-04-07T05:41:41;23.63;;;15.70;;
8279;SDS011;8335;42.646;23.380;2023-04-07T05:44:07;21.10;;;14.57;;
8279;SDS011;8335;42.646;23.380;2023-04-07T05:46:34;25.87;;;13.80;;
8279;SDS011;8335;42.646;23.380;2023-04-07T05:49:02;30.43;;;15.50;;
8279;SDS011;8335;42.646;23.380;2023-04-07T05:51:29;21.13;;;13.90;;
8279;SDS011;8335;42.646;23.380;2023-04-07T05:53:57;20.87;;;14.17;;
8279;SDS011;8335;42.646;23.380;2023-04-07T05:56:24;27.17;;;13.40;;
8279;SDS011;8335;42.646;23.380;2023-04-07T05:58:51;19.33;;;12.63;;
8279;SDS011;8335;42.646;23.380;2023-04-07T06:01:17;18.47;;;12.80;;
8279;SDS011;8335;42.646;23.380;2023-04-07T06:03:44;19.93;;;12.47;;
8279;SDS011;8335;42.646;23.380;2023-04-07T06:06:13;16.47;;;11.07;;
8279;SDS011;8335;42.646;23.380;2023-04-07T06:08:40;18.67;;;11.87;;
8279;SDS011;8335;42.646;23.380;2023-04-07T06:11:07;20.83;;;11.97;;
8279;SDS011;8335;42.646;23.380;2023-04-07T06:13:33;17.27;;;11.97;;
8279;SDS011;8335;42.646;23.380;2023-04-07T06:16:00;17.20;;;12.10;;
8279;SDS011;8335;42.646;23.380;2023-04-07T06:18:27;18.03;;;11.97;;
8279;SDS011;8335;42.646;23.380;2023-04-07T06:20:54;17.27;;;11.17;;
8279;SDS011;8335;42.646;23.380;2023-04-07T06:23:22;17.80;;;11.27;;
8279;SDS011;8335;42.646;23.380;2023-04-07T06:25:49;13.77;;;10.80;;
8279;SDS011;8335;42.646;23.380;2023-04-07T06:28:17;20.27;;;12.40;;
8279;SDS011;8335;42.646;23.380;2023-04-07T06:30:44;17.10;;;11.30;;
8279;SDS011;8335;42.646;23.380;2023-04-07T06:33:10;15.57;;;10.93;;
8279;SDS011;8335;42.646;23.380;2023-04-07T06:35:38;16.83;;;11.13;;
8279;SDS011;8335;42.646;23.380;2023-04-07T06:38:05;15.90;;;10.83;;
8279;SDS011;8335;42.646;23.380;2023-04-07T06:40:33;18.60;;;10.90;;
8279;SDS011;8335;42.646;23.380;2023-04-07T06:43:00;17.80;;;10.77;;
8279;SDS011;8335;42.646;23.380;2023-04-07T06:45:28;15.77;;;11.27;;
8279;SDS011;8335;42.646;23.380;2023-04-07T06:47:54;16.83;;;10.93;;
8279;SDS011;8335;42.646;23.380;2023-04-07T06:50:21;16.80;;;10.95;;
8279;SDS011;8335;42.646;23.380;2023-04-07T06:52:48;17.25;;;10.48;;
8279;SDS011;8335;42.646;23.380;2023-04-07T06:55:15;14.15;;;10.75;;
8279;SDS011;8335;42.646;23.380;2023-04-07T06:57:43;14.80;;;10.75;;
8279;SDS011;8335;42.646;23.380;2023-04-07T07:00:10;22.45;;;10.63;;
8279;SDS011;8335;42.646;23.380;2023-04-07T07:02:37;14.60;;;10.67;;
8279;SDS011;8335;42.646;23.380;2023-04-07T07:05:04;17.03;;;11.43;;
8279;SDS011;8335;42.646;23.380;2023-04-07T07:07:32;19.38;;;11.07;;
8279;SDS011;8335;42.646;23.380;2023-04-07T07:09:59;16.02;;;10.85;;
8279;SDS011;8335;42.646;23.380;2023-04-07T07:12:25;13.73;;;10.23;;
8279;SDS011;8335;42.646;23.380;2023-04-07T07:14:53;14.00;;;10.00;;
8279;SDS011;8335;42.646;23.380;2023-04-07T07:17:20;15.93;;;10.60;;
8279;SDS011;8335;42.646;23.380;2023-04-07T07:19:47;12.80;;;10.55;;
8279;SDS011;8335;42.646;23.380;2023-04-07T07:22:13;14.80;;;11.00;;
8279;SDS011;8335;42.646;23.380;2023-04-07T07:24:40;14.98;;;10.13;;
8279;SDS011;8335;42.646;23.380;2023-04-07T07:27:07;19.88;;;10.90;;
8279;SDS011;8335;42.646;23.380;2023-04-07T07:29:34;13.65;;;10.77;;
8279;SDS011;8335;42.646;23.380;2023-04-07T07:32:02;13.20;;;10.50;;
8279;SDS011;8335;42.646;23.380;2023-04-07T07:34:29;21.92;;;12.48;;
8279;SDS011;8335;42.646;23.380;2023-04-07T07:36:55;16.50;;;12.00;;
8279;SDS011;8335;42.646;23.380;2023-04-07T07:39:23;14.82;;;10.25;;
8279;SDS011;8335;42.646;23.380;2023-04-07T07:41:50;12.35;;;8.10;;
8279;SDS011;8335;42.646;23.380;2023-04-07T07:44:16;10.52;;;7.75;;
8279;SDS011;8335;42.646;23.380;2023-04-07T07:46:44;13.18;;;6.75;;
8279;SDS011;8335;42.646;23.380;2023-04-07T07:49:12;10.88;;;6.03;;
8279;SDS011;8335;42.646;23.380;2023-04-07T07:51:39;8.40;;;6.60;;
8279;SDS011;8335;42.646;23.380;2023-04-07T07:54:06;7.90;;;6.25;;
8279;SDS011;8335;42.646;23.380;2023-04-07T07:56:33;13.57;;;6.60;;
8279;SDS011;8335;42.646;23.380;2023-04-07T07:59:00;12.30;;;6.05;;
8279;SDS011;8335;42.646;23.380;2023-04-07T08:01:27;14.63;;;6.55;;
8279;SDS011;8335;42.646;23.380;2023-04-07T08:03:54;6.85;;;5.88;;
8279;SDS011;8335;42.646;23.380;2023-04-07T08:06:22;7.22;;;5.45;;
8279;SDS011;8335;42.646;23.380;2023-04-07T08:08:49;9.77;;;6.20;;
8279;SDS011;8335;42.646;23.380;2023-04-07T08:11:15;10.18;;;5.60;;
8279;SDS011;8335;42.646;23.380;2023-04-07T08:13:42;9.07;;;6.65;;
8279;SDS011;8335;42.646;23.380;2023-04-07T08:16:10;8.55;;;6.00;;
8279;SDS011;8335;42.646;23.380;2023-04-07T08:18:37;8.23;;;5.82;;
8279;SDS011;8335;42.646;23.380;2023-04-07T08:21:04;7.05;;;6.00;;
8279;SDS011;8335;42.646;23.380;2023-04-07T08:23:33;7.20;;;5.60;;
8279;SDS011;8335;42.646;23.380;2023-04-07T08:25:59;8.63;;;5.30;;
8279;SDS011;8335;42.646;23.380;2023-04-07T08:28:26;9.10;;;5.65;;
8279;SDS011;8335;42.646;23.380;2023-04-07T08:30:53;6.10;;;5.47;;
8279;SDS011;8335;42.646;23.380;2023-04-07T08:33:20;7.90;;;5.40;;
8279;SDS011;8335;42.646;23.380;2023-04-07T08:35:47;8.53;;;6.10;;
8279;SDS011;8335;42.646;23.380;2023-04-07T08:38:13;11.30;;;6.37;;
8279;SDS011;8335;42.646;23.380;2023-04-07T08:40:41;7.20;;;5.78;;
8279;SDS011;8335;42.646;23.380;2023-04-07T08:43:08;9.73;;;5.90;;
8279;SDS011;8335;42.646;23.380;2023-04-07T08:45:36;8.73;;;6.20;;
8279;SDS011;8335;42.646;23.380;2023-04-07T08:48:07;11.63;;;6.97;;
8279;SDS011;8335;42.646;23.380;2023-04-07T08:50:42;7.60;;;5.90;;
8279;SDS011;8335;42.646;23.380;2023-04-07T08:53:10;8.53;;;6.00;;
8279;SDS011;8335;42.646;23.380;2023-04-07T08:55:39;7.93;;;5.90;;
8279;SDS011;8335;42.646;23.380;2023-04-07T08:58:09;9.80;;;5.70;;
8279;SDS011;8335;42.646;23.380;2023-04-07T09:00:37;8.47;;;5.67;;
8279;SDS011;8335;42.646;23.380;2023-04-07T09:03:07;7.57;;;5.30;;
8279;SDS011;8335;42.646;23.380;2023-04-07T09:05:33;6.03;;;5.03;;
8279;SDS011;8335;42.646;23.380;2023-04-07T09:08:01;6.90;;;5.40;;
8279;SDS011;8335;42.646;23.380;2023-04-07T09:10:28;6.80;;;5.37;;
8279;SDS011;8335;42.646;23.380;2023-04-07T09:12:56;5.97;;;4.85;;
8279;SDS011;8335;42.646;23.380;2023-04-07T09:15:27;7.80;;;5.35;;
8279;SDS011;8335;42.646;23.380;2023-04-07T09:17:55;8.23;;;5.70;;
8279;SDS011;8335;42.646;23.380;2023-04-07T09:20:23;7.60;;;5.45;;
8279;SDS011;8335;42.646;23.380;2023-04-07T09:22:50;7.15;;;5.20;;
8279;SDS011;8335;42.646;23.380;2023-04-07T09:25:17;6.15;;;5.05;;
8279;SDS011;8335;42.646;23.380;2023-04-07T09:27:53;9.98;;;5.03;;
8279;SDS011;8335;42.646;23.380;2023-04-07T09:30:21;7.07;;;5.63;;
8279;SDS011;8335;42.646;23.380;2023-04-07T09:32:50;6.38;;;5.50;;
8279;SDS011;8335;42.646;23.380;2023-04-07T09:35:17;9.85;;;6.03;;
8279;SDS011;8335;42.646;23.380;2023-04-07T09:37:54;9.60;;;6.15;;
8279;SDS011;8335;42.646;23.380;2023-04-07T09:40:30;10.90;;;5.88;;
8279;SDS011;8335;42.646;23.380;2023-04-07T09:43:02;9.27;;;5.70;;
8279;SDS011;8335;42.646;23.380;2023-04-07T09:45:29;8.57;;;5.50;;
8279;SDS011;8335;42.646;23.380;2023-04-07T09:47:58;8.70;;;5.97;;
8279;SDS011;8335;42.646;23.380;2023-04-07T09:50:30;6.43;;;5.20;;
8279;SDS011;8335;42.646;23.380;2023-04-07T09:52:59;6.20;;;5.47;;
8279;SDS011;8335;42.646;23.380;2023-04-07T09:55:27;9.63;;;6.23;;
8279;SDS011;8335;42.646;23.380;2023-04-07T09:57:54;7.27;;;6.20;;
8279;SDS011;8335;42.646;23.380;2023-04-07T10:00:21;8.83;;;5.90;;
8279;SDS011;8335;42.646;23.380;2023-04-07T10:02:48;9.53;;;7.30;;
8279;SDS011;8335;42.646;23.380;2023-04-07T10:05:18;10.53;;;6.50;;
8279;SDS011;8335;42.646;23.380;2023-04-07T10:07:46;8.73;;;6.90;;
8279;SDS011;8335;42.646;23.380;2023-04-07T10:10:13;11.00;;;7.47;;
8279;SDS011;8335;42.646;23.380;2023-04-07T10:12:40;10.30;;;7.83;;
8279;SDS011;8335;42.646;23.380;2023-04-07T10:15:08;11.63;;;7.93;;
8279;SDS011;8335;42.646;23.380;2023-04-07T10:17:38;9.23;;;6.53;;
8279;SDS011;8335;42.646;23.380;2023-04-07T10:20:07;9.10;;;6.90;;
8279;SDS011;8335;42.646;23.380;2023-04-07T10:22:37;8.23;;;6.43;;
8279;SDS011;8335;42.646;23.380;2023-04-07T10:25:07;8.57;;;6.07;;
8279;SDS011;8335;42.646;23.380;2023-04-07T10:27:37;9.73;;;6.50;;
8279;SDS011;8335;42.646;23.380;2023-04-07T10:30:14;8.57;;;6.83;;
8279;SDS011;8335;42.646;23.380;2023-04-07T10:32:47;10.03;;;6.33;;
8279;SDS011;8335;42.646;23.380;2023-04-07T10:35:14;10.33;;;6.43;;
8279;SDS011;8335;42.646;23.380;2023-04-07T10:38:06;10.07;;;6.30;;
8279;SDS011;8335;42.646;23.380;2023-04-07T10:40:36;9.90;;;6.43;;
8279;SDS011;8335;42.646;23.380;2023-04-07T10:43:03;9.40;;;6.70;;
8279;SDS011;8335;42.646;23.380;2023-04-07T10:48:23;13.07;;;7.20;;
8279;SDS011;8335;42.646;23.380;2023-04-07T10:57:11;14.53;;;6.70;;
8279;SDS011;8335;42.646;23.380;2023-04-07T10:59:39;11.43;;;7.87;;
8279;SDS011;8335;42.646;23.380;2023-04-07T11:04:56;11.53;;;7.83;;
8279;SDS011;8335;42.646;23.380;2023-04-07T11:07:42;11.17;;;7.67;;
8279;SDS011;8335;42.646;23.380;2023-04-07T11:10:11;12.33;;;8.43;;
8279;SDS011;8335;42.646;23.380;2023-04-07T11:12:41;13.33;;;8.33;;
8279;SDS011;8335;42.646;23.380;2023-04-07T11:15:18;9.93;;;7.97;;
8279;SDS011;8335;42.646;23.380;2023-04-07T11:17:46;11.97;;;8.17;;
8279;SDS011;8335;42.646;23.380;2023-04-07T11:20:13;16.67;;;8.13;;
8279;SDS011;8335;42.646;23.380;2023-04-07T11:22:39;14.97;;;7.83;;
8279;SDS011;8335;42.646;23.380;2023-04-07T11:25:19;9.43;;;7.60;;
8279;SDS011;8335;42.646;23.380;2023-04-07T11:27:48;9.37;;;7.73;;
8279;SDS011;8335;42.646;23.380;2023-04-07T11:30:15;12.70;;;8.27;;
8279;SDS011;8335;42.646;23.380;2023-04-07T11:32:46;12.83;;;8.90;;
8279;SDS011;8335;42.646;23.380;2023-04-07T11:35:14;12.80;;;8.10;;
8279;SDS011;8335;42.646;23.380;2023-04-07T11:37:41;13.23;;;8.03;;
8279;SDS011;8335;42.646;23.380;2023-04-07T11:40:08;11.17;;;7.87;;
8279;SDS011;8335;42.646;23.380;2023-04-07T11:42:37;12.97;;;8.33;;
8279;SDS011;8335;42.646;23.380;2023-04-07T11:45:16;10.50;;;7.60;;
8279;SDS011;8335;42.646;23.380;2023-04-07T11:47:44;10.87;;;7.40;;
8279;SDS011;8335;42.646;23.380;2023-04-07T11:50:11;10.57;;;8.07;;
8279;SDS011;8335;42.646;23.380;2023-04-07T11:52:41;12.87;;;8.10;;
8279;SDS011;8335;42.646;23.380;2023-04-07T11:55:15;12.23;;;8.50;;
8279;SDS011;8335;42.646;23.380;2023-04-07T11:57:43;12.07;;;8.67;;
8279;SDS011;8335;42.646;23.380;2023-04-07T12:00:12;13.93;;;8.53;;
8279;SDS011;8335;42.646;23.380;2023-04-07T12:02:39;10.87;;;8.13;;
8279;SDS011;8335;42.646;23.380;2023-04-07T12:05:07;10.63;;;8.33;;
8279;SDS011;8335;42.646;23.380;2023-04-07T12:07:34;13.37;;;8.50;;
8279;SDS011;8335;42.646;23.380;2023-04-07T12:10:16;12.60;;;8.53;;
8279;SDS011;8335;42.646;23.380;2023-04-07T12:12:44;11.03;;;8.33;;
8279;SDS011;8335;42.646;23.380;2023-04-07T12:15:13;14.30;;;9.17;;
8279;SDS011;8335;42.646;23.380;2023-04-07T12:17:43;10.33;;;8.53;;
8279;SDS011;8335;42.646;23.380;2023-04-07T12:20:11;12.73;;;8.77;;
8279;SDS011;8335;42.646;23.380;2023-04-07T12:22:39;10.77;;;8.83;;
8279;SDS011;8335;42.646;23.380;2023-04-07T12:25:06;12.13;;;8.73;;
8279;SDS011;8335;42.646;23.380;2023-04-07T12:27:33;16.67;;;9.30;;
8279;SDS011;8335;42.646;23.380;2023-04-07T12:30:00;15.83;;;9.10;;
8279;SDS011;8335;42.646;23.380;2023-04-07T12:32:29;13.33;;;10.10;;
8279;SDS011;8335;42.646;23.380;2023-04-07T12:34:57;12.33;;;8.73;;
8279;SDS011;8335;42.646;23.380;2023-04-07T12:37:23;11.13;;;9.50;;
8279;SDS011;8335;42.646;23.380;2023-04-07T12:39:50;12.27;;;9.17;;
8279;SDS011;8335;42.646;23.380;2023-04-07T12:42:17;11.27;;;9.03;;
8279;SDS011;8335;42.646;23.380;2023-04-07T12:44:44;12.30;;;8.57;;
8279;SDS011;8335;42.646;23.380;2023-04-07T12:47:10;11.90;;;8.60;;
8279;SDS011;8335;42.646;23.380;2023-04-07T12:49:38;13.97;;;10.03;;
8279;SDS011;8335;42.646;23.380;2023-04-07T12:52:05;12.53;;;9.20;;
8279;SDS011;8335;42.646;23.380;2023-04-07T12:54:32;15.93;;;9.43;;
8279;SDS011;8335;42.646;23.380;2023-04-07T12:56:59;11.00;;;9.07;;
8279;SDS011;8335;42.646;23.380;2023-04-07T12:59:26;11.93;;;9.57;;
8279;SDS011;8335;42.646;23.380;2023-04-07T13:01:52;10.03;;;8.77;;
8279;SDS011;8335;42.646;23.380;2023-04-07T13:04:19;13.13;;;9.70;;
8279;SDS011;8335;42.646;23.380;2023-04-07T13:06:48;12.70;;;10.37;;
8279;SDS011;8335;42.646;23.380;2023-04-07T13:09:15;11.47;;;9.20;;
8279;SDS011;8335;42.646;23.380;2023-04-07T13:11:41;13.43;;;9.60;;
8279;SDS011;8335;42.646;23.380;2023-04-07T13:14:09;11.60;;;8.87;;
8279;SDS011;8335;42.646;23.380;2023-04-07T13:16:36;12.43;;;8.87;;
8279;SDS011;8335;42.646;23.380;2023-04-07T13:19:03;11.23;;;8.90;;
8279;SDS011;8335;42.646;23.380;2023-04-07T13:21:29;16.63;;;10.70;;
8279;SDS011;8335;42.646;23.380;2023-04-07T13:23:58;15.17;;;9.33;;
8279;SDS011;8335;42.646;23.380;2023-04-07T13:26:24;13.60;;;9.43;;
8279;SDS011;8335;42.646;23.380;2023-04-07T13:28:52;19.30;;;10.63;;
8279;SDS011;8335;42.646;23.380;2023-04-07T13:31:19;15.60;;;9.83;;
8279;SDS011;8335;42.646;23.380;2023-04-07T13:33:47;11.27;;;8.70;;
8279;SDS011;8335;42.646;23.380;2023-04-07T13:36:14;13.07;;;8.67;;
8279;SDS011;8335;42.646;23.380;2023-04-07T13:38:41;10.83;;;8.97;;
8279;SDS011;8335;42.646;23.380;2023-04-07T13:41:09;10.03;;;8.33;;
8279;SDS011;8335;42.646;23.380;2023-04-07T13:43:36;14.23;;;8.80;;
8279;SDS011;8335;42.646;23.380;2023-04-07T13:46:02;14.33;;;9.57;;
8279;SDS011;8335;42.646;23.380;2023-04-07T13:48:29;13.13;;;9.40;;
8279;SDS011;8335;42.646;23.380;2023-04-07T13:50:56;16.07;;;9.77;;
8279;SDS011;8335;42.646;23.380;2023-04-07T13:53:23;12.30;;;9.00;;
8279;SDS011;8335;42.646;23.380;2023-04-07T13:55:50;13.07;;;8.97;;
8279;SDS011;8335;42.646;23.380;2023-04-07T13:58:18;11.10;;;9.33;;
8279;SDS011;8335;42.646;23.380;2023-04-07T14:00:45;11.90;;;8.67;;
8279;SDS011;8335;42.646;23.380;2023-04-07T14:03:12;13.10;;;9.70;;
8279;SDS011;8335;42.646;23.380;2023-04-07T14:05:39;15.50;;;9.27;;
8279;SDS011;8335;42.646;23.380;2023-04-07T14:08:06;14.07;;;8.63;;
8279;SDS011;8335;42.646;23.380;2023-04-07T14:10:33;12.17;;;10.13;;
8279;SDS011;8335;42.646;23.380;2023-04-07T14:13:00;15.67;;;9.27;;
8279;SDS011;8335;42.646;23.380;2023-04-07T14:15:28;13.17;;;10.03;;
8279;SDS011;8335;42.646;23.380;2023-04-07T14:17:55;15.30;;;9.87;;
8279;SDS011;8335;42.646;23.380;2023-04-07T14:20:22;11.87;;;9.30;;
8279;SDS011;8335;42.646;23.380;2023-04-07T14:22:49;12.30;;;9.37;;
8279;SDS011;8335;42.646;23.380;2023-04-07T14:25:16;12.33;;;9.43;;
8279;SDS011;8335;42.646;23.380;2023-04-07T14:27:43;15.73;;;8.77;;
8279;SDS011;8335;42.646;23.380;2023-04-07T14:30:10;12.73;;;8.80;;
8279;SDS011;8335;42.646;23.380;2023-04-07T14:32:39;15.80;;;10.00;;
8279;SDS011;8335;42.646;23.380;2023-04-07T14:35:06;18.10;;;10.80;;
8279;SDS011;8335;42.646;23.380;2023-04-07T14:37:33;17.43;;;10.37;;
8279;SDS011;8335;42.646;23.380;2023-04-07T14:40:00;13.77;;;9.53;;
8279;SDS011;8335;42.646;23.380;2023-04-07T14:42:27;13.80;;;9.73;;
8279;SDS011;8335;42.646;23.380;2023-04-07T14:44:54;13.70;;;9.40;;
8279;SDS011;8335;42.646;23.380;2023-04-07T14:47:22;11.33;;;9.33;;
8279;SDS011;8335;42.646;23.380;2023-04-07T14:49:51;12.10;;;8.97;;
8279;SDS011;8335;42.646;23.380;2023-04-07T14:52:18;18.07;;;10.47;;
8279;SDS011;8335;42.646;23.380;2023-04-07T14:54:45;16.70;;;10.33;;
8279;SDS011;8335;42.646;23.380;2023-04-07T14:57:12;18.23;;;10.90;;
8279;SDS011;8335;42.646;23.380;2023-04-07T14:59:40;15.70;;;10.90;;